Time;durP1;ratioP1;P1;durP2;ratioP2;P2;SDS_P1;SDS_P2;PMS_P1;PMS_P2;Temp;Humidity;BMP_temperature;BMP_pressure;BME280_temperature;BME280_humidity;BME280_pressure;Samples;Min_cycle;Max_cycle;Signal;HPM_P1;HPM_P2
2023/10/04 00:01:04;;;;;;;3.90;1.83;;;15.60;97.60;;;;;;6139531;23;20407;-87
2023/10/04 00:03:50;;;;;;;3.07;1.93;;;15.60;97.80;;;;;;6143339;23;20407;-88
2023/10/04 00:06:42;;;;;;;5.17;1.77;;;15.60;97.80;;;;;;6174049;23;20394;-87
2023/10/04 00:09:13;;;;;;;3.90;2.00;;;15.50;98.00;;;;;;6170592;23;20492;-86
2023/10/04 00:11:50;;;;;;;3.83;1.57;;;15.60;98.10;;;;;;6141994;23;20434;-88
2023/10/04 00:19:56;;;;;;;3.13;1.60;;;15.30;98.30;;;;;;6104250;23;20421;-86
2023/10/04 00:22:25;;;;;;;2.80;1.80;;;15.40;98.60;;;;;;6105225;23;20384;-88
2023/10/04 00:24:54;;;;;;;4.50;1.87;;;15.40;98.80;;;;;;6077084;23;20420;-88
2023/10/04 00:27:23;;;;;;;6.30;1.80;;;15.40;98.70;;;;;;6079192;23;20460;-86
2023/10/04 00:29:58;;;;;;;2.97;1.60;;;15.40;98.80;;;;;;6103553;23;20416;-85
2023/10/04 00:32:28;;;;;;;4.10;1.70;;;15.40;99.00;;;;;;6114418;23;20404;-86
2023/10/04 00:34:59;;;;;;;2.37;1.60;;;15.70;99.00;;;;;;6080182;23;20385;-85
2023/10/04 00:37:35;;;;;;;4.97;1.50;;;15.80;99.30;;;;;;6104610;23;20459;-87
2023/10/04 00:40:12;;;;;;;4.73;1.83;;;15.30;99.10;;;;;;6082550;23;20428;-86
2023/10/04 00:42:44;;;;;;;12.57;1.77;;;15.30;99.20;;;;;;6084967;23;20417;-87
2023/10/04 00:45:17;;;;;;;5.10;1.70;;;15.40;99.20;;;;;;6086753;23;20414;-88
2023/10/04 00:47:57;;;;;;;3.37;1.20;;;15.20;99.20;;;;;;6117139;23;20444;-88
2023/10/04 00:50:31;;;;;;;6.53;2.83;;;15.00;99.60;;;;;;6093409;23;20392;-88
2023/10/04 00:53:22;;;;;;;5.07;1.43;;;15.00;99.90;;;;;;6058198;23;20918;-86
2023/10/04 00:55:56;;;;;;;5.00;1.70;;;14.90;99.90;;;;;;6088413;23;20369;-88
2023/10/04 00:58:29;;;;;;;3.80;1.80;;;14.90;99.90;;;;;;6090834;23;20479;-88
2023/10/04 01:01:10;;;;;;;5.50;2.10;;;14.90;99.90;;;;;;6087198;23;20934;-86
2023/10/04 01:03:48;;;;;;;1.67;1.57;;;14.90;99.90;;;;;;6059059;23;20430;-85
2023/10/04 01:06:20;;;;;;;3.90;2.23;;;14.90;99.90;;;;;;6106273;23;20579;-85
2023/10/04 01:09:06;;;;;;;6.47;2.27;;;14.90;99.90;;;;;;6056049;23;20443;-87
2023/10/04 01:11:48;;;;;;;4.07;1.70;;;15.00;99.90;;;;;;6084386;23;21248;-88
2023/10/04 01:14:37;;;;;;;3.97;2.17;;;14.90;99.90;;;;;;6058840;23;20447;-86
2023/10/04 01:17:12;;;;;;;4.17;1.90;;;14.90;99.90;;;;;;6084286;23;20478;-87
2023/10/04 01:19:51;;;;;;;10.53;2.27;;;15.00;99.90;;;;;;6095458;23;20412;-88
2023/10/04 01:22:21;;;;;;;3.10;1.50;;;15.40;99.90;;;;;;6112316;23;20401;-88
2023/10/04 01:25:11;;;;;;;6.40;1.83;;;15.00;99.90;;;;;;6063466;23;20460;-88
2023/10/04 01:27:58;;;;;;;2.43;1.40;;;14.70;99.90;;;;;;6109088;23;20447;-89
2023/10/04 01:30:29;;;;;;;2.70;1.30;;;14.90;99.90;;;;;;6087690;23;20405;-90
2023/10/04 01:33:15;;;;;;;4.77;1.90;;;14.90;99.90;;;;;;6112228;23;20397;-88
2023/10/04 01:36:43;;;;;;;2.30;1.50;;;14.90;99.90;;;;;;6078940;23;20400;-89
2023/10/04 01:39:24;;;;;;;4.20;1.50;;;14.90;99.90;;;;;;6081867;23;20445;-88
2023/10/04 01:42:00;;;;;;;6.37;1.93;;;14.90;99.90;;;;;;6081035;23;20409;-88
2023/10/04 01:44:45;;;;;;;4.63;1.83;;;14.90;99.90;;;;;;6105862;23;20413;-87
2023/10/04 01:47:26;;;;;;;1.93;1.40;;;14.90;99.90;;;;;;6086608;23;20451;-88
2023/10/04 01:50:18;;;;;;;3.47;1.77;;;14.90;99.90;;;;;;6093879;23;20397;-87
2023/10/04 01:52:50;;;;;;;3.63;1.50;;;14.90;99.90;;;;;;6095230;23;20403;-87
2023/10/04 01:55:33;;;;;;;1.90;1.37;;;14.90;99.90;;;;;;6094191;23;20436;-87
2023/10/04 01:58:18;;;;;;;6.40;1.70;;;15.00;99.90;;;;;;6077324;23;20452;-87
2023/10/04 02:00:56;;;;;;;1.87;1.40;;;14.90;99.90;;;;;;6075637;23;20411;-87
2023/10/04 02:03:29;;;;;;;4.23;1.40;;;14.80;99.90;;;;;;6071778;23;20423;-86
2023/10/04 02:05:59;;;;;;;4.33;2.00;;;15.30;99.90;;;;;;6071832;23;20500;-86
2023/10/04 02:08:32;;;;;;;4.13;1.60;;;14.70;99.90;;;;;;6096418;23;20483;-86
2023/10/04 02:11:03;;;;;;;3.13;2.20;;;14.80;99.90;;;;;;6075115;23;20420;-87
2023/10/04 02:13:35;;;;;;;4.33;2.03;;;14.80;99.90;;;;;;6068216;23;20480;-86
2023/10/04 02:16:08;;;;;;;4.50;1.43;;;15.30;99.90;;;;;;6069524;23;20408;-85
2023/10/04 02:18:40;;;;;;;4.50;3.10;;;15.30;99.90;;;;;;6071759;23;20531;-86
2023/10/04 02:21:12;;;;;;;7.00;1.90;;;14.70;99.90;;;;;;6069990;23;20409;-85
2023/10/04 02:23:42;;;;;;;5.30;1.90;;;15.30;99.90;;;;;;6097884;23;20417;-88
2023/10/04 02:26:13;;;;;;;3.87;1.60;;;14.90;99.90;;;;;;6071728;23;20405;-86
2023/10/04 02:28:45;;;;;;;3.90;2.17;;;14.80;99.90;;;;;;6069751;23;20532;-86
2023/10/04 02:31:21;;;;;;;3.50;1.40;;;14.80;99.90;;;;;;6078179;23;20768;-88
2023/10/04 02:33:52;;;;;;;4.80;1.67;;;14.80;99.90;;;;;;6076498;23;20488;-87
2023/10/04 02:36:19;;;;;;;3.53;1.63;;;14.80;99.90;;;;;;6070146;23;20412;-88
2023/10/04 02:38:47;;;;;;;5.87;1.80;;;15.20;99.90;;;;;;6071710;23;20453;-88
2023/10/04 02:41:20;;;;;;;2.10;1.20;;;14.70;99.90;;;;;;6072796;23;20424;-85
2023/10/04 02:43:50;;;;;;;6.00;1.80;;;14.60;99.90;;;;;;6070630;23;20484;-86
2023/10/04 02:46:20;;;;;;;3.10;1.30;;;14.70;99.90;;;;;;6072213;23;20417;-86
2023/10/04 02:48:48;;;;;;;4.73;1.73;;;14.80;99.90;;;;;;6071957;23;20441;-87
2023/10/04 02:51:20;;;;;;;2.30;1.57;;;14.80;99.90;;;;;;6069854;23;20408;-87
2023/10/04 02:53:50;;;;;;;4.17;1.60;;;14.80;99.90;;;;;;6070321;23;20476;-87
2023/10/04 02:56:26;;;;;;;2.63;1.20;;;14.70;99.90;;;;;;6096541;23;20485;-86
2023/10/04 02:59:03;;;;;;;3.80;1.53;;;14.80;99.90;;;;;;6074769;23;20457;-87
2023/10/04 03:01:37;;;;;;;3.80;1.30;;;14.80;99.90;;;;;;6074926;23;20408;-87
2023/10/04 03:04:17;;;;;;;3.43;1.47;;;14.80;99.90;;;;;;6071539;23;20421;-85
2023/10/04 03:06:45;;;;;;;5.03;1.20;;;14.90;99.90;;;;;;6070996;23;20451;-87
2023/10/04 03:09:21;;;;;;;3.83;1.93;;;14.90;99.90;;;;;;6072398;23;20421;-87
2023/10/04 03:11:51;;;;;;;4.90;1.47;;;14.80;99.90;;;;;;6066448;23;20413;-85
2023/10/04 03:14:20;;;;;;;6.33;1.50;;;14.90;99.90;;;;;;6070183;23;20420;-86
2023/10/04 03:16:47;;;;;;;3.70;1.40;;;14.70;99.90;;;;;;6070587;23;20412;-87
2023/10/04 03:19:17;;;;;;;3.63;1.63;;;15.20;99.90;;;;;;6069496;23;20535;-84
2023/10/04 03:21:56;;;;;;;3.10;1.20;;;15.10;99.90;;;;;;6073395;23;20477;-86
2023/10/04 03:24:25;;;;;;;4.33;2.20;;;14.90;99.90;;;;;;6071909;23;20409;-86
2023/10/04 03:26:56;;;;;;;3.17;1.60;;;14.80;99.90;;;;;;6072264;23;20428;-88
2023/10/04 03:29:24;;;;;;;4.60;1.60;;;14.80;99.90;;;;;;6096281;23;20420;-87
2023/10/04 03:32:07;;;;;;;3.53;1.50;;;14.70;99.90;;;;;;6070348;23;20430;-88
2023/10/04 03:34:44;;;;;;;4.50;1.73;;;14.80;99.90;;;;;;6073202;23;20863;-88
2023/10/04 03:37:14;;;;;;;3.80;1.73;;;14.80;99.90;;;;;;6072603;23;20436;-87
2023/10/04 03:40:06;;;;;;;4.83;3.17;;;14.70;99.90;;;;;;6097658;23;20444;-87
2023/10/04 03:42:46;;;;;;;2.50;1.57;;;14.80;99.90;;;;;;6074286;23;20479;-85
2023/10/04 03:45:20;;;;;;;4.73;1.43;;;14.80;99.90;;;;;;6088172;23;20424;-85
2023/10/04 03:47:57;;;;;;;4.30;1.73;;;14.80;99.90;;;;;;6070910;23;20546;-86
2023/10/04 03:50:32;;;;;;;4.33;1.67;;;14.80;99.90;;;;;;6071174;23;20455;-87
2023/10/04 03:53:04;;;;;;;2.63;1.40;;;14.80;99.90;;;;;;6073024;23;20476;-86
2023/10/04 03:55:41;;;;;;;2.67;1.80;;;14.80;99.90;;;;;;6096418;23;20420;-86
2023/10/04 03:58:27;;;;;;;3.43;1.40;;;14.80;99.90;;;;;;6072520;23;20778;-87
2023/10/04 04:00:56;;;;;;;4.13;1.50;;;14.80;99.90;;;;;;6073027;23;20409;-86
2023/10/04 04:03:32;;;;;;;3.30;2.20;;;14.80;99.90;;;;;;6082213;23;20820;-88
2023/10/04 04:06:08;;;;;;;5.00;1.30;;;14.70;99.90;;;;;;6091199;23;20423;-87
2023/10/04 04:08:42;;;;;;;3.10;1.53;;;14.80;99.90;;;;;;6091529;23;20674;-87
2023/10/04 04:11:19;;;;;;;4.10;1.70;;;14.80;99.90;;;;;;6109119;23;20483;-88
2023/10/04 04:13:57;;;;;;;11.77;8.50;;;14.90;99.90;;;;;;6079205;23;20878;-86
2023/10/04 04:16:35;;;;;;;3.30;1.70;;;14.70;99.90;;;;;;6071439;23;20444;-85
2023/10/04 04:19:15;;;;;;;2.70;1.30;;;14.90;99.90;;;;;;6072584;23;20453;-86
2023/10/04 04:21:44;;;;;;;4.07;1.50;;;14.90;99.90;;;;;;6073403;23;20432;-87
2023/10/04 04:24:11;;;;;;;7.53;1.90;;;14.90;99.90;;;;;;6099271;23;20942;-88
2023/10/04 04:26:41;;;;;;;3.10;1.60;;;14.80;99.90;;;;;;6102533;23;20955;-86
2023/10/04 04:29:12;;;;;;;4.70;1.47;;;14.80;99.90;;;;;;6075160;23;20436;-89
2023/10/04 04:31:40;;;;;;;3.00;1.50;;;14.80;99.90;;;;;;6085866;23;20413;-85
2023/10/04 04:34:15;;;;;;;3.20;1.30;;;15.10;99.90;;;;;;6074116;23;20439;-86
2023/10/04 04:36:53;;;;;;;3.60;1.60;;;14.70;99.90;;;;;;6083878;23;20453;-86
2023/10/04 04:39:40;;;;;;;3.73;1.30;;;14.70;99.90;;;;;;6095847;23;20821;-85
2023/10/04 04:42:23;;;;;;;8.03;1.97;;;14.70;99.90;;;;;;6074030;23;20443;-86
2023/10/04 04:45:07;;;;;;;4.47;1.90;;;14.60;99.90;;;;;;6072417;23;20420;-87
2023/10/04 04:47:40;;;;;;;4.20;2.10;;;14.60;99.90;;;;;;6084560;23;20428;-86
2023/10/04 04:50:19;;;;;;;6.80;1.73;;;14.70;99.90;;;;;;6070219;23;20405;-85
2023/10/04 04:52:46;;;;;;;6.10;2.20;;;14.50;99.90;;;;;;6067160;23;20957;-86
2023/10/04 04:55:18;;;;;;;3.13;1.70;;;14.60;99.90;;;;;;6070936;23;20386;-86
2023/10/04 04:57:46;;;;;;;2.60;1.83;;;14.60;99.90;;;;;;6056152;23;20441;-85
2023/10/04 05:00:31;;;;;;;6.60;1.70;;;14.60;99.90;;;;;;6087770;23;20451;-86
2023/10/04 05:03:00;;;;;;;6.17;1.33;;;14.60;99.90;;;;;;6070001;23;20473;-85
2023/10/04 05:05:31;;;;;;;3.60;1.60;;;14.60;99.90;;;;;;6069773;23;20409;-86
2023/10/04 05:07:58;;;;;;;2.67;1.50;;;14.60;99.90;;;;;;6070005;23;20492;-86
2023/10/04 05:10:29;;;;;;;3.77;1.60;;;14.90;99.90;;;;;;6069210;23;20499;-86
2023/10/04 05:13:13;;;;;;;2.60;1.60;;;14.30;99.90;;;;;;6069171;23;20419;-84
2023/10/04 05:15:44;;;;;;;8.53;1.50;;;14.50;99.90;;;;;;6065909;23;20434;-86
2023/10/04 05:18:21;;;;;;;3.30;2.10;;;14.50;99.90;;;;;;6061061;23;20460;-86
2023/10/04 05:20:53;;;;;;;3.80;1.70;;;15.10;99.90;;;;;;6067120;23;20412;-87
2023/10/04 05:23:25;;;;;;;2.07;1.37;;;14.60;99.90;;;;;;6068866;23;20499;-86
2023/10/04 05:25:55;;;;;;;4.83;1.93;;;14.80;99.90;;;;;;6093871;23;20488;-85
2023/10/04 05:28:22;;;;;;;3.50;1.57;;;14.60;99.90;;;;;;6094241;23;20436;-85
2023/10/04 05:30:51;;;;;;;5.40;1.90;;;14.60;99.90;;;;;;6091475;23;20455;-88
2023/10/04 05:33:20;;;;;;;4.07;1.63;;;15.00;99.90;;;;;;6082162;23;20396;-86
2023/10/04 05:35:55;;;;;;;9.20;2.47;;;14.80;99.90;;;;;;6089075;23;20412;-88
2023/10/04 05:38:23;;;;;;;3.30;1.70;;;14.60;99.90;;;;;;6090768;23;20444;-87
2023/10/04 05:41:02;;;;;;;2.93;2.00;;;14.60;99.90;;;;;;6091347;23;20425;-86
2023/10/04 05:43:34;;;;;;;6.87;2.00;;;14.90;99.90;;;;;;6116659;23;20404;-87
2023/10/04 05:46:07;;;;;;;3.40;2.00;;;14.90;99.90;;;;;;6091460;23;20480;-88
2023/10/04 05:48:36;;;;;;;4.53;1.50;;;15.30;99.90;;;;;;6095638;23;20427;-86
2023/10/04 05:51:07;;;;;;;3.70;1.70;;;14.90;99.90;;;;;;6086062;23;20416;-86
2023/10/04 05:53:51;;;;;;;4.83;2.30;;;14.70;99.90;;;;;;6100732;23;20432;-86
2023/10/04 05:56:20;;;;;;;2.17;1.80;;;14.70;99.90;;;;;;6076012;23;20421;-87
2023/10/04 05:59:00;;;;;;;5.30;1.80;;;15.20;99.90;;;;;;6101389;23;20456;-87
2023/10/04 06:01:37;;;;;;;5.13;2.30;;;14.60;99.90;;;;;;6101692;23;20423;-87
2023/10/04 06:04:15;;;;;;;8.20;1.80;;;14.80;99.90;;;;;;6077251;23;20510;-84
2023/10/04 06:06:45;;;;;;;4.93;1.53;;;14.90;99.90;;;;;;6075705;23;20455;-87
2023/10/04 06:09:26;;;;;;;4.80;2.67;;;14.80;99.90;;;;;;6074857;23;20421;-87
2023/10/04 06:12:31;;;;;;;3.83;2.23;;;14.70;99.90;;;;;;6081596;23;20412;-88
2023/10/04 06:14:59;;;;;;;7.90;2.07;;;14.60;99.90;;;;;;6081209;23;20949;-86
2023/10/04 06:17:29;;;;;;;5.83;2.37;;;14.50;99.90;;;;;;6080057;23;20436;-87
2023/10/04 06:20:45;;;;;;;9.90;2.60;;;14.60;99.90;;;;;;6102035;23;20448;-87
2023/10/04 06:23:33;;;;;;;6.67;2.40;;;14.80;99.90;;;;;;6097675;23;20422;-88
2023/10/04 06:26:16;;;;;;;5.33;2.47;;;14.60;99.90;;;;;;6010146;23;20420;-86
2023/10/04 06:29:10;;;;;;;;;;;;;;;;;;;;;
2023/10/04 06:31:39;;;;;;;4.40;1.90;;;14.80;99.90;;;;;;6106869;23;20413;-88
2023/10/04 06:34:13;;;;;;;5.90;2.13;;;15.10;99.90;;;;;;6074705;23;20396;-85
2023/10/04 06:36:55;;;;;;;9.33;2.30;;;14.60;99.90;;;;;;6074932;23;20535;-88
2023/10/04 06:39:27;;;;;;;5.50;2.40;;;14.60;99.90;;;;;;6076755;23;20456;-86
2023/10/04 06:42:11;;;;;;;5.03;1.87;;;15.00;99.90;;;;;;6077636;23;20411;-87
2023/10/04 06:44:41;;;;;;;4.90;1.93;;;15.40;99.90;;;;;;6079231;23;20472;-86
2023/10/04 06:50:06;;;;;;;3.27;1.93;;;15.50;99.90;;;;;;6172734;23;20438;-88
2023/10/04 06:53:01;;;;;;;6.20;2.10;;;15.60;99.90;;;;;;6177552;23;20398;-87
2023/10/04 06:55:40;;;;;;;7.47;2.33;;;15.50;99.90;;;;;;6175120;23;20461;-88
2023/10/04 06:58:13;;;;;;;4.83;1.93;;;15.50;99.90;;;;;;6148436;23;20440;-86
2023/10/04 07:00:52;;;;;;;5.43;1.90;;;15.60;99.90;;;;;;6139768;23;20466;-87
2023/10/04 07:03:29;;;;;;;5.07;2.07;;;15.90;99.90;;;;;;6160328;23;20403;-86
2023/10/04 07:06:03;;;;;;;9.70;1.80;;;16.00;99.90;;;;;;6131968;23;20572;-87
2023/10/04 07:08:52;;;;;;;4.90;1.97;;;16.70;99.90;;;;;;6158458;23;20497;-86
2023/10/04 07:11:21;;;;;;;4.10;1.70;;;18.50;97.80;;;;;;6157201;23;20768;-86
2023/10/04 07:13:52;;;;;;;4.70;2.00;;;20.00;93.90;;;;;;6156553;23;20419;-85
2023/10/04 07:16:31;;;;;;;5.63;1.57;;;19.90;91.80;;;;;;6160392;23;20422;-87
2023/10/04 07:19:30;;;;;;;3.53;2.00;;;19.20;91.90;;;;;;6134758;23;20470;-87
2023/10/04 07:22:09;;;;;;;5.67;2.70;;;19.20;93.10;;;;;;6160934;23;20410;-87
2023/10/04 07:24:47;;;;;;;11.97;2.40;;;18.80;92.60;;;;;;6143338;23;20391;-86
2023/10/04 07:27:23;;;;;;;3.07;1.70;;;19.20;93.70;;;;;;6143495;23;20437;-84
2023/10/04 07:29:58;;;;;;;4.60;1.90;;;20.20;92.00;;;;;;6143799;23;20394;-86
2023/10/04 07:32:35;;;;;;;4.87;1.80;;;21.30;89.50;;;;;;6143111;23;20423;-85
2023/10/04 07:35:16;;;;;;;;;;;;;;;;;;;;;
2023/10/04 07:38:05;;;;;;;5.37;2.27;;;22.50;82.20;;;;;;6168477;23;20418;-85
2023/10/04 07:40:49;;;;;;;4.27;3.27;;;22.70;79.70;;;;;;6144444;23;20450;-85
2023/10/04 07:43:40;;;;;;;5.10;2.20;;;21.80;80.30;;;;;;6145177;23;20498;-87
2023/10/04 07:46:10;;;;;;;7.23;2.23;;;20.50;83.90;;;;;;6147812;23;20421;-87
2023/10/04 07:49:08;;;;;;;3.73;1.97;;;19.50;88.50;;;;;;6149923;23;20442;-87
2023/10/04 07:52:03;;;;;;;;;;;;;;;;;;;;;
2023/10/04 07:54:37;;;;;;;6.87;2.77;;;18.20;92.40;;;;;;6170316;23;20647;-87
2023/10/04 07:57:10;;;;;;;6.70;2.23;;;17.90;93.60;;;;;;6146570;23;20445;-85
2023/10/04 07:59:49;;;;;;;4.40;2.03;;;17.70;94.40;;;;;;6148969;23;20465;-86
2023/10/04 08:02:45;;;;;;;4.90;2.20;;;17.60;94.70;;;;;;6149422;23;20438;-86
2023/10/04 08:05:39;;;;;;;4.53;2.10;;;17.80;95.40;;;;;;6149823;23;20438;-87
2023/10/04 08:08:11;;;;;;;5.43;3.07;;;17.50;95.40;;;;;;6141741;23;20427;-86
2023/10/04 08:10:57;;;;;;;5.90;1.77;;;17.50;95.30;;;;;;6141168;23;20510;-86
2023/10/04 08:13:30;;;;;;;5.83;1.93;;;17.40;95.60;;;;;;6139831;23;20410;-88
2023/10/04 08:16:14;;;;;;;7.07;2.10;;;17.60;96.20;;;;;;6143930;23;20518;-88
2023/10/04 08:19:03;;;;;;;7.10;2.60;;;17.60;95.60;;;;;;6135117;23;20862;-87
2023/10/04 08:21:37;;;;;;;6.87;2.90;;;17.80;95.70;;;;;;6122237;23;20429;-86
2023/10/04 08:24:14;;;;;;;6.33;2.37;;;17.20;95.90;;;;;;6142047;23;20410;-87
2023/10/04 08:26:50;;;;;;;6.17;2.63;;;17.20;96.60;;;;;;6133218;23;20470;-89
2023/10/04 08:29:37;;;;;;;2.33;2.00;;;17.10;96.90;;;;;;6172334;23;20411;-87
2023/10/04 08:32:07;;;;;;;5.70;2.23;;;17.20;96.70;;;;;;6142897;23;20483;-86
2023/10/04 08:34:38;;;;;;;11.33;2.43;;;17.20;97.00;;;;;;6131404;23;20421;-86
2023/10/04 08:39:51;;;;;;;6.90;4.33;;;17.50;96.00;;;;;;6191142;23;20454;-85
2023/10/04 08:42:28;;;;;;;5.50;2.50;;;17.20;96.50;;;;;;6190404;23;20864;-85
2023/10/04 08:45:17;;;;;;;6.07;2.30;;;17.40;96.80;;;;;;6179211;23;20456;-88
2023/10/04 08:47:57;;;;;;;5.57;2.40;;;17.20;96.70;;;;;;6195553;23;20513;-87
2023/10/04 08:50:50;;;;;;;3.70;1.60;;;17.20;97.00;;;;;;6163989;23;20401;-87
2023/10/04 08:53:55;;;;;;;3.73;2.03;;;17.50;97.50;;;;;;6190627;23;20414;-87
2023/10/04 08:57:28;;;;;;;4.40;2.00;;;17.20;97.30;;;;;;6166542;23;20445;-86
2023/10/04 09:00:29;;;;;;;5.27;2.47;;;17.40;97.40;;;;;;5998522;23;20457;-86
2023/10/04 09:03:27;;;;;;;9.73;2.13;;;17.40;97.00;;;;;;6018255;23;20443;-87
2023/10/04 09:06:26;;;;;;;3.43;1.60;;;17.40;97.00;;;;;;6164106;23;20414;-87
2023/10/04 09:09:15;;;;;;;4.77;2.00;;;17.40;97.20;;;;;;6162933;23;20462;-86
2023/10/04 09:11:50;;;;;;;4.13;1.73;;;17.40;97.30;;;;;;6185040;23;20413;-86
2023/10/04 09:14:20;;;;;;;4.87;2.20;;;17.70;97.10;;;;;;6158271;23;20460;-85
2023/10/04 09:17:14;;;;;;;6.33;2.30;;;17.90;96.40;;;;;;6165540;23;20494;-88
2023/10/04 09:19:59;;;;;;;4.10;2.40;;;17.80;96.30;;;;;;6163308;23;20484;-87
2023/10/04 09:22:48;;;;;;;5.60;2.07;;;17.80;96.20;;;;;;6167718;23;20437;-84
2023/10/04 09:25:20;;;;;;;6.97;2.70;;;17.80;96.10;;;;;;6170054;23;20802;-87
2023/10/04 09:31:27;;;;;;;5.97;2.27;;;17.90;96.00;;;;;;6040239;23;20407;-87
2023/10/04 09:34:20;;;;;;;7.00;3.67;;;18.00;95.40;;;;;;6051740;23;20426;-87
2023/10/04 09:36:55;;;;;;;6.40;2.20;;;18.20;95.50;;;;;;6177768;23;20413;-88
2023/10/04 09:39:33;;;;;;;5.43;2.00;;;18.80;95.00;;;;;;6145487;23;20457;-86
2023/10/04 09:42:14;;;;;;;6.33;2.03;;;20.00;93.40;;;;;;6128471;23;20411;-86
2023/10/04 09:44:46;;;;;;;4.23;1.60;;;21.20;90.90;;;;;;6161115;23;20407;-85
2023/10/04 09:47:53;;;;;;;8.70;2.20;;;21.80;88.10;;;;;;6132694;23;20446;-87
2023/10/04 09:50:28;;;;;;;4.70;2.10;;;22.20;84.80;;;;;;6125188;23;21117;-86
2023/10/04 09:53:07;;;;;;;3.73;1.90;;;22.50;81.90;;;;;;6132529;23;21120;-85
2023/10/04 09:56:03;;;;;;;6.63;1.83;;;22.70;79.30;;;;;;6135424;23;20427;-87
2023/10/04 09:58:53;;;;;;;5.23;1.80;;;22.70;78.80;;;;;;6143792;23;20431;-87
2023/10/04 10:01:44;;;;;;;5.10;2.00;;;22.30;77.30;;;;;;6126809;23;21131;-89
2023/10/04 10:04:33;;;;;;;4.33;2.20;;;21.90;77.70;;;;;;6144055;23;20391;-84
2023/10/04 10:08:04;;;;;;;5.03;2.30;;;21.90;78.20;;;;;;6141369;23;20422;-85
2023/10/04 10:10:42;;;;;;;4.40;1.90;;;22.40;77.60;;;;;;6013689;23;20419;-86
2023/10/04 10:13:28;;;;;;;3.90;2.00;;;22.20;79.00;;;;;;6045066;23;20414;-87
2023/10/04 10:16:12;;;;;;;6.07;2.70;;;22.40;79.30;;;;;;6133220;23;20457;-87
2023/10/04 10:22:20;;;;;;;5.63;2.47;;;21.90;78.30;;;;;;6153091;23;20554;-85
2023/10/04 10:25:13;;;;;;;4.83;2.13;;;21.40;79.30;;;;;;6147221;23;20429;-85
2023/10/04 10:27:41;;;;;;;5.57;2.50;;;21.00;79.70;;;;;;6157444;23;21023;-85
2023/10/04 10:30:09;;;;;;;5.23;2.30;;;20.80;81.00;;;;;;6164102;23;20512;-85
2023/10/04 10:32:55;;;;;;;5.23;2.30;;;20.80;80.80;;;;;;6157507;23;20943;-84
2023/10/04 10:36:02;;;;;;;;;;;;;;;;;;;;;
2023/10/04 10:39:16;;;;;;;5.10;2.50;;;20.60;80.10;;;;;;6172231;23;20719;-87
2023/10/04 10:41:57;;;;;;;6.57;3.90;;;20.60;80.10;;;;;;6194429;23;20471;-81
2023/10/04 10:44:25;;;;;;;5.60;2.20;;;20.50;80.30;;;;;;6186758;23;20497;-82
2023/10/04 10:47:04;;;;;;;5.67;2.20;;;20.40;81.50;;;;;;6185206;23;21389;-82
2023/10/04 10:49:55;;;;;;;6.37;2.90;;;20.30;81.30;;;;;;6156737;23;20778;-80
2023/10/04 10:52:27;;;;;;;4.63;2.00;;;20.20;80.40;;;;;;6157065;23;20501;-83
2023/10/04 10:54:57;;;;;;;5.17;2.43;;;20.00;81.20;;;;;;6181931;23;20695;-85
2023/10/04 10:57:28;;;;;;;5.10;2.40;;;20.00;82.00;;;;;;6182800;23;20437;-83
2023/10/04 11:00:01;;;;;;;8.43;2.17;;;20.10;82.70;;;;;;6157048;23;20410;-86
2023/10/04 11:02:28;;;;;;;2.83;2.50;;;20.10;83.20;;;;;;6161718;23;20806;-85
2023/10/04 11:04:55;;;;;;;8.37;3.37;;;20.70;82.80;;;;;;6186304;23;20421;-84
2023/10/04 11:07:23;;;;;;;6.60;3.27;;;20.40;82.20;;;;;;6166569;23;20434;-86
2023/10/04 11:09:51;;;;;;;5.10;2.80;;;20.00;83.80;;;;;;6193068;23;20417;-83
2023/10/04 11:12:23;;;;;;;6.37;2.53;;;19.80;84.80;;;;;;6190297;23;20421;-83
2023/10/04 11:14:51;;;;;;;6.57;2.20;;;19.70;86.70;;;;;;6162296;23;20437;-83
2023/10/04 11:17:22;;;;;;;8.40;2.80;;;19.70;86.70;;;;;;6160957;23;20462;-85
2023/10/04 11:19:52;;;;;;;5.57;2.83;;;19.80;86.60;;;;;;6158138;23;20424;-83
2023/10/04 11:22:19;;;;;;;6.97;3.67;;;19.80;85.80;;;;;;6154323;23;20410;-86
2023/10/04 11:24:47;;;;;;;5.60;2.77;;;19.80;85.20;;;;;;6181503;23;20410;-83
2023/10/04 11:27:22;;;;;;;7.03;3.07;;;19.90;85.10;;;;;;6157769;23;20422;-82
2023/10/04 11:29:50;;;;;;;5.77;2.30;;;19.80;85.10;;;;;;6163871;23;20402;-81
2023/10/04 11:32:17;;;;;;;4.00;2.50;;;19.80;85.30;;;;;;6192956;23;20521;-87
2023/10/04 11:34:44;;;;;;;6.43;3.10;;;19.70;85.60;;;;;;6166194;23;20414;-82
2023/10/04 11:37:13;;;;;;;4.83;2.50;;;19.70;86.40;;;;;;6187552;23;20473;-85
2023/10/04 11:39:43;;;;;;;5.37;2.43;;;19.60;85.30;;;;;;6182484;23;21105;-85
2023/10/04 11:42:18;;;;;;;4.93;2.70;;;19.50;85.30;;;;;;6155703;23;20513;-84
2023/10/04 11:44:45;;;;;;;7.37;2.60;;;19.50;85.70;;;;;;6153224;23;20509;-84
2023/10/04 11:47:14;;;;;;;8.20;2.50;;;19.40;86.10;;;;;;6179548;23;20434;-85
2023/10/04 11:49:55;;;;;;;13.37;3.70;;;19.40;86.60;;;;;;6153385;23;20420;-82
2023/10/04 11:52:22;;;;;;;5.37;3.10;;;19.30;86.40;;;;;;6181239;23;20406;-84
2023/10/04 11:54:49;;;;;;;5.33;2.43;;;19.30;86.90;;;;;;6180895;23;20453;-85
2023/10/04 11:57:27;;;;;;;7.90;3.03;;;19.30;87.20;;;;;;6156358;23;20552;-86
2023/10/04 11:59:59;;;;;;;5.70;3.07;;;19.30;86.50;;;;;;6158122;23;20429;-82
2023/10/04 12:02:26;;;;;;;5.43;4.03;;;19.30;87.20;;;;;;6195085;23;20397;-84
2023/10/04 12:04:53;;;;;;;6.90;3.30;;;19.60;86.20;;;;;;6186508;23;20475;-83
2023/10/04 12:07:20;;;;;;;7.00;2.97;;;19.90;83.80;;;;;;6181447;23;20449;-83
2023/10/04 12:09:47;;;;;;;7.27;4.10;;;19.90;83.30;;;;;;6180887;23;20452;-82
2023/10/04 12:12:16;;;;;;;8.37;3.37;;;19.80;82.60;;;;;;6155544;23;20438;-83
2023/10/04 12:14:44;;;;;;;7.50;3.60;;;19.80;82.70;;;;;;6184131;23;20472;-83
2023/10/04 12:17:11;;;;;;;5.30;3.43;;;19.90;81.60;;;;;;6167241;23;20473;-82
2023/10/04 12:19:38;;;;;;;7.87;3.50;;;19.80;81.10;;;;;;6203075;23;20422;-82
2023/10/04 12:22:09;;;;;;;7.87;3.40;;;19.80;80.50;;;;;;6174754;23;20472;-83
2023/10/04 12:24:39;;;;;;;8.00;3.40;;;19.70;79.80;;;;;;6179957;23;20426;-81
2023/10/04 12:27:14;;;;;;;7.70;2.93;;;19.60;80.60;;;;;;6155261;23;20445;-81
2023/10/04 12:29:41;;;;;;;6.40;3.20;;;19.50;80.90;;;;;;6183679;23;20509;-82
2023/10/04 12:32:08;;;;;;;6.63;3.60;;;19.50;81.40;;;;;;6155550;23;20421;-83
2023/10/04 12:34:35;;;;;;;10.20;4.10;;;19.60;82.20;;;;;;6178783;23;20410;-83
2023/10/04 12:37:03;;;;;;;7.83;3.53;;;19.70;80.70;;;;;;6154667;23;20489;-89
2023/10/04 12:39:31;;;;;;;6.20;3.67;;;19.70;80.70;;;;;;6154477;23;20422;-88
2023/10/04 12:41:59;;;;;;;7.00;3.93;;;19.70;80.50;;;;;;6155709;23;20521;-86
2023/10/04 12:52:44;;;;;;;7.00;4.43;;;20.20;77.70;;;;;;6155339;23;20457;-87
2023/10/04 12:55:35;;;;;;;9.33;3.87;;;20.30;77.70;;;;;;6177439;23;20417;-86
2023/10/04 12:58:35;;;;;;;20.00;5.27;;;20.30;76.80;;;;;;6150503;23;20452;-87
2023/10/04 13:01:24;;;;;;;8.97;4.37;;;20.50;76.40;;;;;;6165311;23;20468;-87
2023/10/04 13:07:59;;;;;;;5.73;3.50;;;20.20;78.00;;;;;;6203463;23;20450;-87
2023/10/04 13:11:15;;;;;;;6.67;3.90;;;20.10;79.00;;;;;;6175542;23;20417;-85
2023/10/04 13:14:20;;;;;;;8.43;4.10;;;19.90;79.70;;;;;;6185089;23;20417;-86
2023/10/04 13:17:31;;;;;;;8.43;3.33;;;20.10;79.10;;;;;;6163787;23;20405;-86
2023/10/04 13:23:31;;;;;;;6.50;4.43;;;19.90;77.50;;;;;;6186487;23;20902;-86
2023/10/04 13:26:12;;;;;;;8.37;3.80;;;20.00;77.40;;;;;;6182724;23;20414;-85
2023/10/04 13:29:24;;;;;;;;;;;;;;;;;;;;;
2023/10/04 13:32:07;;;;;;;7.77;4.27;;;19.90;76.40;;;;;;6182864;23;20479;-86
2023/10/04 13:34:50;;;;;;;;;;;;;;;;;;;;;
2023/10/04 13:37:39;;;;;;;7.27;3.90;;;19.80;76.20;;;;;;6185081;23;20504;-85
2023/10/04 13:40:41;;;;;;;3.80;2.80;;;19.80;76.80;;;;;;6182464;23;20409;-85
2023/10/04 13:43:17;;;;;;;6.63;3.40;;;19.70;77.00;;;;;;6159369;23;20907;-87
2023/10/04 13:45:56;;;;;;;6.30;3.17;;;19.70;77.40;;;;;;6164408;23;20417;-87
2023/10/04 13:48:41;;;;;;;6.43;3.67;;;19.70;77.70;;;;;;6165509;23;20453;-85
2023/10/04 13:54:14;;;;;;;7.00;3.03;;;19.70;77.10;;;;;;6174713;23;20524;-88
2023/10/04 13:56:53;;;;;;;9.90;4.23;;;19.60;77.70;;;;;;6202080;23;20425;-86
2023/10/04 13:59:51;;;;;;;5.90;3.20;;;19.70;78.00;;;;;;6166550;23;20935;-86
2023/10/04 14:03:12;;;;;;;6.87;4.00;;;19.70;78.30;;;;;;6170947;23;20496;-89
2023/10/04 14:06:00;;;;;;;;;;;;;;;;;;;;;
2023/10/04 14:08:52;;;;;;;8.70;3.17;;;19.70;79.00;;;;;;6182711;23;20472;-87
2023/10/04 14:11:42;;;;;;;5.80;3.37;;;19.60;79.30;;;;;;6168522;23;20432;-88
2023/10/04 14:14:45;;;;;;;6.10;3.60;;;19.60;79.10;;;;;;6154052;23;20462;-84
2023/10/04 14:17:33;;;;;;;9.23;4.23;;;19.60;79.90;;;;;;6155336;23;20429;-88
2023/10/04 14:20:20;;;;;;;9.07;3.37;;;19.50;79.80;;;;;;6151940;23;20822;-85
2023/10/04 14:26:15;;;;;;;6.63;3.40;;;19.50;80.40;;;;;;6181594;23;20408;-87
2023/10/04 14:29:03;;;;;;;6.90;3.20;;;19.60;80.50;;;;;;6153036;23;20437;-85
2023/10/04 14:31:35;;;;;;;6.20;3.60;;;19.50;80.90;;;;;;6153781;23;20495;-86
2023/10/04 14:34:30;;;;;;;8.57;4.27;;;19.90;82.10;;;;;;6158016;23;20398;-86